Current Weather

Waukegan

Waukegan, Illinois (KUGN)

Report from: Wednesday, September 28, 2022 2:55 AM CDT
Current time: Wednesday, September 28, 2022 3:42 AM CDT

Nearby weather
Weather history
Weather forecast

Temperature8.9°C (48.0°F)
Wind chill7.1°C (44.9°F)
Dew point3.9°C (39.0°F)
Winds 6 kts (3.1 m/s, 6.9 mph) North-Northwest (330°)
Visibility10 mi. (16.1 km)
Clouds Ceiling: Overcast 6,500 ft. (1,981 m)
Altimeter30.32 in.Hg (1027 mB)
Relative humidity71 %
Density altitude-1,068 ft. (-326 m)
Sea-level pressure102.7 kPa (1027 mB, 30.32 in.Hg)
Remarks Fully automated report
System requires maintenance
Automated weather observing station with precipitation discriminator
Flight conditions Visual Meteorological Conditions
Raw dataKUGN 280755Z AUTO 33006KT 10SM OVC065 09/04 A3032 RMK AO2 SLP268 T00890039 $
An error has occurred. This application may no longer respond until reloaded. Reload 🗙